L'image de la webcam se met à jour toutes les 30s.
La jauge météo se met à jour toutes les 10s d'après les données envoyées par la station météo du club.
Les graphiques se mettent à jour toutes les 5min et ne s'affichent que si la station est en ligne
Autres webcams locales
Surfaces en herbe praticables

MAJ le 16/05/2024 16:00 DDE
METAR de LFRD (Source NOAA)
LFRD 200000Z AUTO 00000KT 2600 0500 R35/0600D BCFG NSC 13/12 Q1013 TEMPO 0400 FG VV///

TAF de LFRD (Source NOAA)
TAF AMD LFRD 191926Z 1919/2018 VRB05KT CAVOK TEMPO 1919/1921 4000 SHRA BKN030CB PROB40 TEMPO 1919/1921 1400 TSRA BECMG 1919/1923 3000 BR BKN003 PROB40 TEMPO 2000/2004 0400 FG VV/// BECMG 2006/2009 03010KT CAVOK TEMPO 2015/2018 4000 SHRA BKN020CB PROB40 TEMPO 2017/2018 VRB15G25KT 2000 TSRAGS
Ayez la webcam en fond d'écran de votre téléphone ou de votre tablette Android avec l'appli du club.